Time,TemperatureF,DewpointF,PressureIn,WindDirection,WindDirectionDegrees,WindSpeedMPH,WindSpeedGustMPH,Humidity,HourlyPrecipIn,Conditions,Clouds,dailyrainin,SolarRadiationWatts/m^2,SoftwareType,DateUTC
2013-01-02 00:00:00,1.9,-3.1,30.80,South,183,1.0,3.0,79,0.00,,,0.01,0,LWC V2.00 B727,2013-01-02 07:00:00,
2013-01-02 00:05:00,2.0,-2.7,30.81,South,183,1.0,3.0,80,0.00,,,0.00,0,LWC V2.00 B727,2013-01-02 07:05:00,
2013-01-02 00:10:00,2.1,-2.6,30.81,South,183,0.0,2.0,80,0.00,,,0.00,0,LWC V2.00 B727,2013-01-02 07:10:00,
2013-01-02 00:15:00,2.1,-2.6,30.82,South,182,2.0,3.0,80,0.00,,,0.00,0,LWC V2.00 B727,2013-01-02 07:15:00,
2013-01-02 00:20:00,2.2,-2.5,30.81,South,182,3.0,4.0,80,0.00,,,0.00,0,LWC V2.00 B727,2013-01-02 07:20:00,
2013-01-02 00:25:00,2.2,-2.5,30.81,South,182,1.0,5.0,80,0.00,,,0.00,0,LWC V2.00 B727,2013-01-02 07:25:00,
2013-01-02 00:30:00,2.1,-2.9,30.81,South,182,1.0,4.0,79,0.00,,,0.00,0,LWC V2.00 B727,2013-01-02 07:30:00,
2013-01-02 00:35:00,1.9,-3.3,30.81,South,182,2.0,5.0,78,0.00,,,0.00,0,LWC V2.00 B727,2013-01-02 07:35:00,
2013-01-02 00:40:00,1.7,-3.5,30.81,South,180,2.0,4.0,78,0.00,,,0.00,0,LWC V2.00 B727,2013-01-02 07:40:00,
2013-01-02 00:45:00,1.5,-3.7,30.81,South,180,5.0,6.0,78,0.00,,,0.00,0,LWC V2.00 B727,2013-01-02 07:45:00,
2013-01-02 00:50:00,1.4,-3.8,30.81,South,180,3.0,5.0,78,0.00,,,0.00,0,LWC V2.00 B727,2013-01-02 07:50:00,
2013-01-02 00:55:00,1.3,-3.9,30.81,South,180,2.0,4.0,78,0.00,,,0.00,0,LWC V2.00 B727,2013-01-02 07:55:00,
2013-01-02 01:00:00,1.2,-4.3,30.81,South,180,3.0,4.0,77,0.00,,,0.00,0,LWC V2.00 B727,2013-01-02 08:00:00,
2013-01-02 01:05:00,1.0,-4.8,30.81,South,180,2.0,3.0,76,0.00,,,0.00,0,LWC V2.00 B727,2013-01-02 08:05:00,
2013-01-02 01:10:00,0.9,-4.6,30.82,South,179,1.0,2.0,77,0.00,,,0.00,0,LWC V2.00 B727,2013-01-02 08:10:00,
2013-01-02 01:15:00,0.8,-4.7,30.82,South,180,3.0,4.0,77,0.00,,,0.00,0,LWC V2.00 B727,2013-01-02 08:15:00,
2013-01-02 01:20:00,0.9,-4.3,30.82,South,180,1.0,3.0,78,0.00,,,0.00,0,LWC V2.00 B727,2013-01-02 08:20:00,
2013-01-02 01:25:00,0.9,-4.3,30.82,South,180,2.0,5.0,78,0.00,,,0.00,0,LWC V2.00 B727,2013-01-02 08:25:00,
2013-01-02 01:30:00,1.3,-3.7,30.82,South,179,3.0,4.0,79,0.00,,,0.00,0,LWC V2.00 B727,2013-01-02 08:30:00,
2013-01-02 01:35:00,1.7,-3.5,30.83,South,180,3.0,4.0,78,0.00,,,0.00,0,LWC V2.00 B727,2013-01-02 08:35:00,
2013-01-02 01:40:00,1.7,-4.1,30.83,South,179,3.0,4.0,76,0.00,,,0.00,0,LWC V2.00 B727,2013-01-02 08:40:00,
2013-01-02 01:45:00,1.4,-4.7,30.83,South,180,3.0,4.0,75,0.00,,,0.00,0,LWC V2.00 B727,2013-01-02 08:45:00,
2013-01-02 01:50:00,1.3,-4.7,30.83,South,180,1.0,6.0,75,0.00,,,0.00,0,LWC V2.00 B727,2013-01-02 08:50:00,
2013-01-02 01:55:00,1.5,-4.0,30.83,South,179,0.0,2.0,77,0.00,,,0.00,0,LWC V2.00 B727,2013-01-02 08:55:00,
2013-01-02 02:00:00,1.8,-3.7,30.83,South,180,2.0,3.0,77,0.00,,,0.00,0,LWC V2.00 B727,2013-01-02 09:00:00,
2013-01-02 02:05:00,2.2,-3.3,30.83,South,179,2.0,4.0,77,0.00,,,0.00,0,LWC V2.00 B727,2013-01-02 09:05:00,
2013-01-02 02:10:00,2.7,-2.8,30.83,South,179,0.0,1.0,77,0.00,,,0.00,0,LWC V2.00 B727,2013-01-02 09:10:00,
2013-01-02 02:15:00,2.8,-2.7,30.83,South,179,0.0,2.0,77,0.00,,,0.00,0,LWC V2.00 B727,2013-01-02 09:15:00,
2013-01-02 02:20:00,2.8,-3.0,30.83,South,179,2.0,2.0,76,0.00,,,0.00,0,LWC V2.00 B727,2013-01-02 09:20:00,
2013-01-02 02:25:00,2.5,-3.9,30.83,South,179,0.0,0.0,74,0.00,,,0.00,0,LWC V2.00 B727,2013-01-02 09:25:00,
2013-01-02 02:30:00,2.3,-4.1,30.83,South,179,0.0,2.0,74,0.00,,,0.00,0,LWC V2.00 B727,2013-01-02 09:30:00,
2013-01-02 02:35:00,2.3,-4.1,30.83,South,179,0.0,0.0,74,0.00,,,0.00,0,LWC V2.00 B727,2013-01-02 09:35:00,
2013-01-02 02:40:00,2.2,-4.2,30.83,South,179,0.0,2.0,74,0.00,,,0.00,0,LWC V2.00 B727,2013-01-02 09:40:00,
2013-01-02 02:45:00,2.2,-4.2,30.83,South,179,0.0,1.0,74,0.00,,,0.00,0,LWC V2.00 B727,2013-01-02 09:45:00,
2013-01-02 02:50:00,2.2,-4.2,30.83,South,179,1.0,1.0,74,0.00,,,0.00,0,LWC V2.00 B727,2013-01-02 09:50:00,
2013-01-02 02:55:00,2.2,-4.2,30.83,South,179,1.0,2.0,74,0.00,,,0.00,0,LWC V2.00 B727,2013-01-02 09:55:00,
2013-01-02 03:00:00,2.2,-4.2,30.83,South,180,4.0,7.0,74,0.00,,,0.00,0,LWC V2.00 B727,2013-01-02 10:00:00,
2013-01-02 03:05:00,2.4,-3.7,30.83,South,180,3.0,4.0,75,0.00,,,0.00,0,LWC V2.00 B727,2013-01-02 10:05:00,
2013-01-02 03:10:00,2.5,-3.9,30.83,South,180,3.0,3.0,74,0.00,,,0.00,0,LWC V2.00 B727,2013-01-02 10:10:00,
2013-01-02 03:15:00,2.5,-3.9,30.84,South,180,3.0,3.0,74,0.00,,,0.00,0,LWC V2.00 B727,2013-01-02 10:15:00,
2013-01-02 03:20:00,2.4,-4.2,30.84,South,180,3.0,4.0,73,0.00,,,0.00,0,LWC V2.00 B727,2013-01-02 10:20:00,
2013-01-02 03:25:00,2.3,-4.3,30.84,South,180,2.0,4.0,73,0.00,,,0.00,0,LWC V2.00 B727,2013-01-02 10:25:00,
2013-01-02 03:30:00,2.2,-4.4,30.84,South,180,4.0,4.0,73,0.00,,,0.00,0,LWC V2.00 B727,2013-01-02 10:30:00,
2013-01-02 03:35:00,2.1,-4.5,30.84,South,180,3.0,5.0,73,0.00,,,0.00,0,LWC V2.00 B727,2013-01-02 10:35:00,
2013-01-02 03:40:00,2.0,-4.3,30.84,South,180,1.0,2.0,74,0.00,,,0.00,0,LWC V2.00 B727,2013-01-02 10:40:00,
2013-01-02 03:45:00,2.1,-4.0,30.84,South,180,1.0,1.0,75,0.00,,,0.00,0,LWC V2.00 B727,2013-01-02 10:45:00,
2013-01-02 03:50:00,2.1,-4.2,30.84,South,180,2.0,3.0,74,0.00,,,0.00,0,LWC V2.00 B727,2013-01-02 10:50:00,
2013-01-02 03:55:00,2.1,-4.2,30.83,South,180,0.0,1.0,74,0.00,,,0.00,0,LWC V2.00 B727,2013-01-02 10:55:00,
2013-01-02 04:00:00,1.9,-4.7,30.83,South,180,3.0,3.0,73,0.00,,,0.00,0,LWC V2.00 B727,2013-01-02 11:00:00,
2013-01-02 04:05:00,1.8,-4.8,30.83,South,180,1.0,4.0,73,0.00,,,0.00,0,LWC V2.00 B727,2013-01-02 11:05:00,
2013-01-02 04:10:00,1.8,-4.5,30.83,South,180,1.0,2.0,74,0.00,,,0.00,0,LWC V2.00 B727,2013-01-02 11:10:00,
2013-01-02 04:15:00,1.8,-4.5,30.83,South,180,0.0,2.0,74,0.00,,,0.00,0,LWC V2.00 B727,2013-01-02 11:15:00,
2013-01-02 04:20:00,1.9,-4.4,30.83,South,180,2.0,3.0,74,0.00,,,0.00,0,LWC V2.00 B727,2013-01-02 11:20:00,
2013-01-02 04:25:00,1.8,-4.8,30.83,South,180,2.0,3.0,73,0.00,,,0.00,0,LWC V2.00 B727,2013-01-02 11:25:00,
2013-01-02 04:30:00,1.8,-4.5,30.84,South,180,0.0,3.0,74,0.00,,,0.00,0,LWC V2.00 B727,2013-01-02 11:30:00,
2013-01-02 04:35:00,1.7,-4.6,30.84,South,180,0.0,2.0,74,0.00,,,0.00,0,LWC V2.00 B727,2013-01-02 11:35:00,
2013-01-02 04:40:00,1.7,-4.6,30.84,South,180,3.0,4.0,74,0.00,,,0.00,0,LWC V2.00 B727,2013-01-02 11:40:00,
2013-01-02 04:45:00,1.7,-4.6,30.84,South,180,2.0,4.0,74,0.00,,,0.00,0,LWC V2.00 B727,2013-01-02 11:45:00,
2013-01-02 04:50:00,1.6,-4.7,30.84,South,180,3.0,4.0,74,0.00,,,0.00,0,LWC V2.00 B727,2013-01-02 11:50:00,
2013-01-02 04:55:00,1.6,-4.7,30.84,South,180,0.0,2.0,74,0.00,,,0.00,0,LWC V2.00 B727,2013-01-02 11:55:00,
2013-01-02 05:00:00,1.5,-4.8,30.84,South,180,2.0,3.0,74,0.00,,,0.00,0,LWC V2.00 B727,2013-01-02 12:00:00,
2013-01-02 05:05:00,1.5,-4.8,30.84,South,180,0.0,2.0,74,0.00,,,0.00,0,LWC V2.00 B727,2013-01-02 12:05:00,
2013-01-02 05:10:00,1.5,-4.8,30.84,South,180,0.0,1.0,74,0.00,,,0.00,0,LWC V2.00 B727,2013-01-02 12:10:00,
2013-01-02 05:15:00,1.5,-4.8,30.85,South,180,1.0,1.0,74,0.00,,,0.00,0,LWC V2.00 B727,2013-01-02 12:15:00,
2013-01-02 05:20:00,1.4,-4.9,30.85,South,180,1.0,2.0,74,0.00,,,0.00,0,LWC V2.00 B727,2013-01-02 12:20:00,
2013-01-02 05:25:00,1.4,-4.9,30.85,South,180,1.0,3.0,74,0.00,,,0.00,0,LWC V2.00 B727,2013-01-02 12:25:00,
2013-01-02 05:30:00,1.5,-4.8,30.85,South,180,1.0,2.0,74,0.00,,,0.00,0,LWC V2.00 B727,2013-01-02 12:30:00,
2013-01-02 05:35:00,1.5,-4.8,30.86,South,180,2.0,4.0,74,0.00,,,0.00,0,LWC V2.00 B727,2013-01-02 12:35:00,
2013-01-02 05:40:00,1.4,-4.9,30.86,South,180,1.0,4.0,74,0.00,,,0.00,0,LWC V2.00 B727,2013-01-02 12:40:00,
2013-01-02 05:45:00,1.4,-4.9,30.86,South,180,1.0,4.0,74,0.00,,,0.00,0,LWC V2.00 B727,2013-01-02 12:45:00,
2013-01-02 05:50:00,1.3,-5.0,30.86,South,180,2.0,4.0,74,0.00,,,0.00,0,LWC V2.00 B727,2013-01-02 12:50:00,
2013-01-02 05:55:00,1.3,-4.7,30.86,South,180,2.0,5.0,75,0.00,,,0.00,0,LWC V2.00 B727,2013-01-02 12:55:00,
2013-01-02 05:59:00,1.3,-4.7,30.86,South,180,3.0,4.0,75,0.00,,,0.00,0,LWC V2.00 B727,2013-01-02 12:59:00,
2013-01-02 06:05:00,1.4,-4.7,30.86,South,180,0.0,2.0,75,0.00,,,0.00,0,LWC V2.00 B727,2013-01-02 13:05:00,
2013-01-02 06:10:00,1.3,-4.7,30.86,South,180,1.0,3.0,75,0.00,,,0.00,0,LWC V2.00 B727,2013-01-02 13:10:00,
2013-01-02 06:14:00,1.1,-5.2,30.86,South,180,0.0,2.0,74,0.00,,,0.00,0,LWC V2.00 B727,2013-01-02 13:14:00,
2013-01-02 06:20:00,0.9,-5.7,30.87,South,180,0.0,1.0,73,0.00,,,0.00,0,LWC V2.00 B727,2013-01-02 13:20:00,
2013-01-02 06:25:00,0.4,-6.7,30.87,South,180,0.0,0.0,71,0.00,,,0.00,0,LWC V2.00 B727,2013-01-02 13:25:00,
2013-01-02 06:29:00,0.1,-6.7,30.87,South,180,1.0,2.0,72,0.00,,,0.00,0,LWC V2.00 B727,2013-01-02 13:29:00,
2013-01-02 06:35:00,0.0,-6.3,30.87,South,180,2.0,4.0,74,0.00,,,0.00,0,LWC V2.00 B727,2013-01-02 13:35:00,
2013-01-02 06:40:00,0.2,-5.8,30.87,South,180,2.0,4.0,75,0.00,,,0.00,0,LWC V2.00 B727,2013-01-02 13:40:00,
2013-01-02 06:44:00,0.3,-5.7,30.87,South,180,1.0,3.0,75,0.00,,,0.00,0,LWC V2.00 B727,2013-01-02 13:44:00,
2013-01-02 06:50:00,0.3,-6.0,30.87,South,180,1.0,2.0,74,0.00,,,0.00,0,LWC V2.00 B727,2013-01-02 13:50:00,
2013-01-02 06:55:00,0.1,-6.5,30.87,South,180,1.0,3.0,73,0.00,,,0.00,0,LWC V2.00 B727,2013-01-02 13:55:00,
2013-01-02 06:59:00,-0.1,-6.7,30.87,South,180,0.0,2.0,73,0.00,,,0.00,0,LWC V2.00 B727,2013-01-02 13:59:00,
2013-01-02 07:04:00,-0.3,-6.9,30.87,South,180,0.0,2.0,73,0.00,,,0.00,0,LWC V2.00 B727,2013-01-02 14:04:00,
2013-01-02 07:09:00,-0.6,-6.9,30.88,South,180,1.0,2.0,74,0.00,,,0.00,0,LWC V2.00 B727,2013-01-02 14:09:00,
2013-01-02 07:14:00,-0.6,-6.6,30.87,South,180,1.0,3.0,75,0.00,,,0.00,0,LWC V2.00 B727,2013-01-02 14:14:00,
2013-01-02 07:19:00,-0.6,-6.6,30.88,South,180,2.0,4.0,75,0.00,,,0.00,5,LWC V2.00 B727,2013-01-02 14:19:00,
2013-01-02 07:24:00,-0.4,-5.9,30.88,South,180,2.0,3.0,77,0.00,,,0.00,7,LWC V2.00 B727,2013-01-02 14:24:00,
2013-01-02 07:29:00,-0.2,-5.9,30.89,South,180,3.0,3.0,76,0.00,,,0.00,9,LWC V2.00 B727,2013-01-02 14:29:00,
2013-01-02 07:34:00,-0.1,-6.1,30.89,South,180,0.0,3.0,75,0.00,,,0.00,11,LWC V2.00 B727,2013-01-02 14:34:00,
2013-01-02 07:39:00,-0.1,-6.1,30.89,South,180,0.0,2.0,75,0.00,,,0.00,11,LWC V2.00 B727,2013-01-02 14:39:00,
2013-01-02 07:44:00,-0.1,-6.1,30.89,South,180,0.0,3.0,75,0.00,,,0.00,12,LWC V2.00 B727,2013-01-02 14:44:00,
2013-01-02 07:49:00,0.0,-5.7,30.89,South,180,3.0,4.0,76,0.00,,,0.00,62,LWC V2.00 B727,2013-01-02 14:49:00,
2013-01-02 07:54:00,0.1,-5.6,30.89,South,180,2.0,4.0,76,0.00,,,0.00,74,LWC V2.00 B727,2013-01-02 14:54:00,
2013-01-02 07:59:00,0.4,-5.6,30.89,South,180,3.0,3.0,75,0.00,,,0.00,86,LWC V2.00 B727,2013-01-02 14:59:00,
2013-01-02 08:04:00,0.6,-5.2,30.89,South,180,0.0,3.0,76,0.00,,,0.00,70,LWC V2.00 B727,2013-01-02 15:04:00,
2013-01-02 08:09:00,1.0,-4.8,30.89,South,180,2.0,5.0,76,0.00,,,0.00,72,LWC V2.00 B727,2013-01-02 15:09:00,
2013-01-02 08:14:00,1.6,-4.2,30.89,South,180,2.0,3.0,76,0.00,,,0.00,54,LWC V2.00 B727,2013-01-02 15:14:00,
2013-01-02 08:19:00,2.1,-3.7,30.89,South,180,2.0,3.0,76,0.00,,,0.00,125,LWC V2.00 B727,2013-01-02 15:19:00,
2013-01-02 08:24:00,2.8,-3.0,30.89,South,180,3.0,3.0,76,0.00,,,0.00,162,LWC V2.00 B727,2013-01-02 15:24:00,
2013-01-02 08:29:00,3.4,-2.4,30.89,South,180,2.0,3.0,76,0.00,,,0.00,137,LWC V2.00 B727,2013-01-02 15:29:00,
2013-01-02 08:34:00,4.1,-2.0,30.89,South,180,0.0,1.0,75,0.00,,,0.00,116,LWC V2.00 B727,2013-01-02 15:34:00,
2013-01-02 08:39:00,4.7,-1.5,30.89,South,180,0.0,1.0,75,0.00,,,0.00,211,LWC V2.00 B727,2013-01-02 15:39:00,
2013-01-02 08:44:00,5.4,-0.8,30.90,South,180,2.0,2.0,75,0.00,,,0.00,230,LWC V2.00 B727,2013-01-02 15:44:00,
2013-01-02 08:49:00,6.2,-0.3,30.90,South,180,1.0,2.0,74,0.00,,,0.00,250,LWC V2.00 B727,2013-01-02 15:49:00,
2013-01-02 08:54:00,7.2,0.4,30.90,South,180,1.0,1.0,73,0.00,,,0.00,265,LWC V2.00 B727,2013-01-02 15:54:00,
2013-01-02 08:59:00,8.0,0.9,30.90,South,180,1.0,2.0,72,0.00,,,0.00,287,LWC V2.00 B727,2013-01-02 15:59:00,
2013-01-02 09:04:00,9.0,1.5,30.90,South,180,0.0,2.0,71,0.00,,,0.00,308,LWC V2.00 B727,2013-01-02 16:04:00,
2013-01-02 09:09:00,9.9,2.1,30.90,South,180,1.0,2.0,70,0.00,,,0.00,318,LWC V2.00 B727,2013-01-02 16:09:00,
2013-01-02 09:10:00,9.9,2.1,30.90,South,180,1.0,2.0,70,0.00,,,0.00,318,LWC V2.00 B727,2013-01-02 16:10:00,
2013-01-02 09:20:00,8.1,1.0,30.90,South,180,1.0,3.0,72,0.00,,,0.00,206,LWC V2.00 B727,2013-01-02 16:20:00,
2013-01-02 09:30:00,13.9,4.0,30.90,South,180,0.0,3.0,64,0.00,,,0.00,342,LWC V2.00 B727,2013-01-02 16:30:00,
2013-01-02 09:40:00,13.9,4.0,30.90,South,180,0.0,3.0,64,0.00,,,0.00,342,LWC V2.00 B727,2013-01-02 16:40:00,
2013-01-02 09:50:00,13.9,4.0,30.90,South,180,0.0,3.0,64,0.00,,,0.00,342,LWC V2.00 B727,2013-01-02 16:50:00,
2013-01-02 10:00:00,17.4,4.4,30.90,South,180,0.0,3.0,56,0.00,,,0.00,464,LWC V2.00 B727,2013-01-02 17:00:00,
2013-01-02 10:10:00,17.4,4.4,30.90,South,180,0.0,3.0,56,0.00,,,0.00,464,LWC V2.00 B727,2013-01-02 17:10:00,
2013-01-02 10:20:00,17.4,4.4,30.90,South,180,0.0,3.0,56,0.00,,,0.00,464,LWC V2.00 B727,2013-01-02 17:20:00,
2013-01-02 10:30:00,19.9,8.3,30.89,South,180,0.0,3.0,60,0.00,,,0.00,550,LWC V2.00 B727,2013-01-02 17:30:00,
2013-01-02 10:40:00,19.9,8.3,30.89,South,180,0.0,3.0,60,0.00,,,0.00,550,LWC V2.00 B727,2013-01-02 17:40:00,
2013-01-02 10:50:00,19.9,8.3,30.89,South,180,0.0,3.0,60,0.00,,,0.00,550,LWC V2.00 B727,2013-01-02 17:50:00,
2013-01-02 11:00:00,22.9,10.4,30.87,South,180,2.0,4.0,58,0.00,,,0.00,601,LWC V2.00 B727,2013-01-02 18:00:00,
2013-01-02 11:10:00,22.9,10.4,30.87,South,180,2.0,4.0,58,0.00,,,0.00,601,LWC V2.00 B727,2013-01-02 18:10:00,
2013-01-02 11:20:00,22.9,10.4,30.87,South,180,2.0,4.0,58,0.00,,,0.00,601,LWC V2.00 B727,2013-01-02 18:20:00,
2013-01-02 11:30:00,24.8,11.4,30.85,South,180,2.0,6.0,56,0.00,,,0.00,640,LWC V2.00 B727,2013-01-02 18:30:00,
2013-01-02 11:40:00,24.8,11.4,30.85,South,180,2.0,6.0,56,0.00,,,0.00,640,LWC V2.00 B727,2013-01-02 18:40:00,
2013-01-02 11:50:00,24.8,11.4,30.85,South,180,2.0,6.0,56,0.00,,,0.00,640,LWC V2.00 B727,2013-01-02 18:50:00,
2013-01-02 12:00:00,24.9,8.9,30.83,SW,225,3.0,8.0,50,0.00,,,0.00,661,LWC V2.00 B727,2013-01-02 19:00:00,
2013-01-02 12:10:00,24.9,8.9,30.83,SW,225,3.0,8.0,50,0.00,,,0.00,661,LWC V2.00 B727,2013-01-02 19:10:00,
2013-01-02 12:20:00,24.9,8.9,30.83,SW,225,3.0,8.0,50,0.00,,,0.00,661,LWC V2.00 B727,2013-01-02 19:20:00,
2013-01-02 12:30:00,24.8,11.0,30.81,SW,225,2.0,7.0,55,0.00,,,0.00,665,LWC V2.00 B727,2013-01-02 19:30:00,
2013-01-02 12:40:00,24.8,11.0,30.81,SW,225,2.0,7.0,55,0.00,,,0.00,665,LWC V2.00 B727,2013-01-02 19:40:00,
2013-01-02 12:50:00,24.8,11.0,30.81,SW,225,2.0,7.0,55,0.00,,,0.00,665,LWC V2.00 B727,2013-01-02 19:50:00,
2013-01-02 13:00:00,25.6,10.5,30.80,WSW,248,2.0,7.0,52,0.00,,,0.00,652,LWC V2.00 B727,2013-01-02 20:00:00,
2013-01-02 13:10:00,25.6,10.5,30.80,WSW,248,2.0,7.0,52,0.00,,,0.00,652,LWC V2.00 B727,2013-01-02 20:10:00,
2013-01-02 13:20:00,25.6,10.5,30.80,WSW,248,2.0,7.0,52,0.00,,,0.00,652,LWC V2.00 B727,2013-01-02 20:20:00,
2013-01-02 13:30:00,26.1,9.6,30.79,SW,225,2.0,7.0,49,0.00,,,0.00,623,LWC V2.00 B727,2013-01-02 20:30:00,
2013-01-02 13:40:00,26.1,9.6,30.79,SW,225,2.0,7.0,49,0.00,,,0.00,623,LWC V2.00 B727,2013-01-02 20:40:00,
2013-01-02 13:50:00,26.1,9.6,30.79,SW,225,2.0,7.0,49,0.00,,,0.00,623,LWC V2.00 B727,2013-01-02 20:50:00,
2013-01-02 14:00:00,26.3,9.8,30.79,NNE,22,2.0,6.0,49,0.00,,,0.00,578,LWC V2.00 B727,2013-01-02 21:00:00,
2013-01-02 14:10:00,26.3,9.8,30.79,NNE,22,2.0,6.0,49,0.00,,,0.00,578,LWC V2.00 B727,2013-01-02 21:10:00,
2013-01-02 14:20:00,26.3,9.8,30.79,NNE,22,2.0,6.0,49,0.00,,,0.00,578,LWC V2.00 B727,2013-01-02 21:20:00,
2013-01-02 14:30:00,26.9,8.9,30.78,WSW,248,1.0,6.0,46,0.00,,,0.00,522,LWC V2.00 B727,2013-01-02 21:30:00,
2013-01-02 14:40:00,26.9,8.9,30.78,WSW,248,1.0,6.0,46,0.00,,,0.00,522,LWC V2.00 B727,2013-01-02 21:40:00,
2013-01-02 14:50:00,26.9,8.9,30.78,WSW,248,1.0,6.0,46,0.00,,,0.00,522,LWC V2.00 B727,2013-01-02 21:50:00,
2013-01-02 15:00:00,26.6,8.6,30.79,SW,225,1.0,8.0,46,0.00,,,0.00,453,LWC V2.00 B727,2013-01-02 22:00:00,
2013-01-02 15:10:00,26.6,8.6,30.79,SW,225,1.0,8.0,46,0.00,,,0.00,453,LWC V2.00 B727,2013-01-02 22:10:00,
2013-01-02 15:20:00,26.6,8.6,30.79,SW,225,1.0,8.0,46,0.00,,,0.00,453,LWC V2.00 B727,2013-01-02 22:20:00,
2013-01-02 15:30:00,25.8,7.9,30.80,West,270,1.0,6.0,46,0.00,,,0.00,366,LWC V2.00 B727,2013-01-02 22:30:00,
2013-01-02 15:40:00,25.8,7.9,30.80,West,270,1.0,6.0,46,0.00,,,0.00,366,LWC V2.00 B727,2013-01-02 22:40:00,
2013-01-02 15:50:00,25.8,7.9,30.80,West,270,1.0,6.0,46,0.00,,,0.00,366,LWC V2.00 B727,2013-01-02 22:50:00,
2013-01-02 16:00:00,24.5,7.2,30.80,NW,315,1.0,4.0,47,0.00,,,0.00,210,LWC V2.00 B727,2013-01-02 23:00:00,
2013-01-02 16:10:00,24.5,7.2,30.80,NW,315,1.0,4.0,47,0.00,,,0.00,210,LWC V2.00 B727,2013-01-02 23:10:00,
2013-01-02 16:20:00,24.5,7.2,30.80,NW,315,1.0,4.0,47,0.00,,,0.00,210,LWC V2.00 B727,2013-01-02 23:20:00,
2013-01-02 16:30:00,22.9,6.2,30.80,North,0,0.0,4.0,48,0.00,,,0.00,26,LWC V2.00 B727,2013-01-02 23:30:00,
2013-01-02 16:40:00,22.9,6.2,30.80,North,0,0.0,4.0,48,0.00,,,0.00,26,LWC V2.00 B727,2013-01-02 23:40:00,
2013-01-02 16:50:00,22.9,6.2,30.80,North,0,0.0,4.0,48,0.00,,,0.00,26,LWC V2.00 B727,2013-01-02 23:50:00,
2013-01-02 17:00:00,22.9,6.2,30.80,North,0,0.0,4.0,48,0.00,,,0.00,26,LWC V2.00 B727,2013-01-03 00:00:00,
2013-01-02 17:10:00,15.5,-2.5,30.81,North,0,0.0,0.0,44,0.00,,,0.00,11,LWC V2.00 B727,2013-01-03 00:10:00,
2013-01-02 17:20:00,15.5,-2.5,30.81,North,0,0.0,0.0,44,0.00,,,0.00,11,LWC V2.00 B727,2013-01-03 00:20:00,
2013-01-02 17:30:00,15.5,-2.5,30.81,North,0,0.0,0.0,44,0.00,,,0.00,11,LWC V2.00 B727,2013-01-03 00:30:00,
2013-01-02 17:40:00,9.0,-0.7,30.82,NNE,22,0.0,2.0,64,0.00,,,0.00,0,LWC V2.00 B727,2013-01-03 00:40:00,
2013-01-02 17:50:00,9.0,-0.7,30.82,NNE,22,0.0,2.0,64,0.00,,,0.00,0,LWC V2.00 B727,2013-01-03 00:50:00,
2013-01-02 18:00:00,9.0,-0.7,30.82,NNE,22,0.0,2.0,64,0.00,,,0.00,0,LWC V2.00 B727,2013-01-03 01:00:00,
2013-01-02 18:10:00,9.5,1.4,30.83,SSE,158,1.0,4.0,69,0.00,,,0.00,0,LWC V2.00 B727,2013-01-03 01:10:00,
2013-01-02 18:20:00,9.5,1.4,30.83,SSE,158,1.0,4.0,69,0.00,,,0.00,0,LWC V2.00 B727,2013-01-03 01:20:00,
2013-01-02 18:30:00,8.9,0.5,30.85,SSE,158,1.0,4.0,68,0.00,,,0.00,0,LWC V2.00 B727,2013-01-03 01:30:00,
2013-01-02 18:40:00,8.9,0.5,30.85,SSE,158,1.0,4.0,68,0.00,,,0.00,0,LWC V2.00 B727,2013-01-03 01:40:00,
2013-01-02 18:50:00,8.9,0.5,30.85,SSE,158,1.0,4.0,68,0.00,,,0.00,0,LWC V2.00 B727,2013-01-03 01:50:00,
2013-01-02 19:00:00,7.4,-1.2,30.87,SSE,158,1.0,4.0,67,0.00,,,0.00,0,LWC V2.00 B727,2013-01-03 02:00:00,
2013-01-02 19:10:00,7.4,-1.2,30.87,SSE,158,1.0,4.0,67,0.00,,,0.00,0,LWC V2.00 B727,2013-01-03 02:10:00,
2013-01-02 19:20:00,7.4,-1.2,30.87,SSE,158,1.0,4.0,67,0.00,,,0.00,0,LWC V2.00 B727,2013-01-03 02:20:00,
2013-01-02 19:30:00,6.5,-0.9,30.87,SSE,158,1.0,5.0,71,0.00,,,0.00,0,LWC V2.00 B727,2013-01-03 02:30:00,
2013-01-02 19:40:00,6.5,-0.9,30.87,SSE,158,1.0,5.0,71,0.00,,,0.00,0,LWC V2.00 B727,2013-01-03 02:40:00,
2013-01-02 19:50:00,6.5,-0.9,30.87,SSE,158,1.0,5.0,71,0.00,,,0.00,0,LWC V2.00 B727,2013-01-03 02:50:00,
2013-01-02 20:00:00,5.8,-1.5,30.88,SSE,158,1.0,3.0,71,0.00,,,0.00,0,LWC V2.00 B727,2013-01-03 03:00:00,
2013-01-02 20:10:00,5.8,-1.5,30.88,SSE,158,1.0,3.0,71,0.00,,,0.00,0,LWC V2.00 B727,2013-01-03 03:10:00,
2013-01-02 20:20:00,5.8,-1.5,30.88,SSE,158,1.0,3.0,71,0.00,,,0.00,0,LWC V2.00 B727,2013-01-03 03:20:00,
2013-01-02 20:30:00,5.6,-1.4,30.89,SSE,158,1.0,5.0,72,0.00,,,0.00,0,LWC V2.00 B727,2013-01-03 03:30:00,
2013-01-02 20:40:00,5.6,-1.4,30.89,SSE,158,1.0,5.0,72,0.00,,,0.00,0,LWC V2.00 B727,2013-01-03 03:40:00,
2013-01-02 20:50:00,5.6,-1.4,30.89,SSE,158,1.0,5.0,72,0.00,,,0.00,0,LWC V2.00 B727,2013-01-03 03:50:00,
2013-01-02 21:00:00,4.4,-2.9,30.89,SSE,158,1.0,3.0,71,0.00,,,0.00,0,LWC V2.00 B727,2013-01-03 04:00:00,
2013-01-02 21:10:00,4.4,-2.9,30.89,SSE,158,1.0,3.0,71,0.00,,,0.00,0,LWC V2.00 B727,2013-01-03 04:10:00,
2013-01-02 21:20:00,4.4,-2.9,30.89,SSE,158,1.0,3.0,71,0.00,,,0.00,0,LWC V2.00 B727,2013-01-03 04:20:00,
2013-01-02 21:30:00,4.1,-2.3,30.92,SSE,158,1.0,3.0,74,0.00,,,0.00,0,LWC V2.00 B727,2013-01-03 04:30:00,
2013-01-02 21:40:00,4.1,-2.3,30.92,SSE,158,1.0,3.0,74,0.00,,,0.00,0,LWC V2.00 B727,2013-01-03 04:40:00,
2013-01-02 21:50:00,4.1,-2.3,30.92,SSE,158,1.0,3.0,74,0.00,,,0.00,0,LWC V2.00 B727,2013-01-03 04:50:00,
2013-01-02 22:00:00,4.8,-1.1,30.93,SSE,158,1.0,6.0,76,0.00,,,0.00,0,LWC V2.00 B727,2013-01-03 05:00:00,
2013-01-02 22:10:00,4.8,-1.1,30.93,SSE,158,1.0,6.0,76,0.00,,,0.00,0,LWC V2.00 B727,2013-01-03 05:10:00,
2013-01-02 22:20:00,4.8,-1.1,30.93,SSE,158,1.0,6.0,76,0.00,,,0.00,0,LWC V2.00 B727,2013-01-03 05:20:00,
2013-01-02 22:30:00,6.0,-1.0,30.94,SSE,158,2.0,6.0,72,0.00,,,0.00,0,LWC V2.00 B727,2013-01-03 05:30:00,
2013-01-02 22:40:00,6.0,-1.0,30.94,SSE,158,2.0,6.0,72,0.00,,,0.00,0,LWC V2.00 B727,2013-01-03 05:40:00,
2013-01-02 22:50:00,6.0,-1.0,30.94,SSE,158,2.0,6.0,72,0.00,,,0.00,0,LWC V2.00 B727,2013-01-03 05:50:00,
2013-01-02 23:00:00,1.9,-6.8,30.94,SE,135,0.0,1.0,66,0.00,,,0.00,0,LWC V2.00 B727,2013-01-03 06:00:00,
2013-01-02 23:10:00,1.9,-6.8,30.94,SE,135,0.0,1.0,66,0.00,,,0.00,0,LWC V2.00 B727,2013-01-03 06:10:00,
2013-01-02 23:20:00,1.9,-6.8,30.94,SE,135,0.0,1.0,66,0.00,,,0.00,0,LWC V2.00 B727,2013-01-03 06:20:00,
2013-01-02 23:30:00,-0.5,-7.3,30.95,SE,135,0.0,2.0,72,0.00,,,0.00,0,LWC V2.00 B727,2013-01-03 06:30:00,
2013-01-02 23:40:00,-0.5,-7.3,30.95,SE,135,0.0,2.0,72,0.00,,,0.00,0,LWC V2.00 B727,2013-01-03 06:40:00,
2013-01-02 23:50:00,-0.5,-7.3,30.95,SE,135,0.0,2.0,72,0.00,,,0.00,0,LWC V2.00 B727,2013-01-03 06:50:00,